Time;durP1;ratioP1;P1;durP2;ratioP2;P2;SDS_P1;SDS_P2;PMS_P1;PMS_P2;Temp;Humidity;BMP_temperature;BMP_pressure;BME280_temperature;BME280_humidity;BME280_pressure;Samples;Min_cycle;Max_cycle;Signal;HPM_P1;HPM_P2
2022/12/29 00:00:28;;;;;;;2.25;1.70;;;;;;;7.20;89.93;97708.44;4190478;28;20469;-78
2022/12/29 00:02:28;;;;;;;4.30;1.60;;;;;;;7.31;89.79;97709.34;4192635;28;20430;-78
2022/12/29 00:04:29;;;;;;;4.10;1.40;;;;;;;7.29;89.75;97713.66;4192055;28;20143;-78
2022/12/29 00:06:29;;;;;;;2.47;1.83;;;;;;;7.38;89.01;97703.13;4189027;28;20106;-78
2022/12/29 00:08:39;;;;;;;1.83;1.50;;;;;;;7.41;88.89;97702.38;4191931;28;20282;-78
2022/12/29 00:10:39;;;;;;;2.33;2.00;;;;;;;7.42;89.26;97689.41;4196524;28;20046;-78
2022/12/29 00:17:17;;;;;;;3.30;2.20;;;;;;;7.37;89.65;97685.03;4192772;28;20044;-77
2022/12/29 00:35:07;;;;;;;2.53;1.75;;;;;;;7.40;89.60;97705.50;4207186;28;20104;-77
2022/12/29 00:36:19;;;;;;;4.00;1.73;;;;;;;7.23;91.24;97688.41;4187590;28;20044;-77
2022/12/29 00:45:17;;;;;;;3.15;1.77;;;;;;;7.06;92.10;97669.72;4207341;28;20523;-78
2022/12/29 00:47:18;;;;;;;2.67;1.77;;;;;;;7.05;92.25;97673.66;4207255;28;20040;-78
2022/12/29 00:49:30;;;;;;;2.15;1.48;;;;;;;7.01;92.64;97662.59;4207375;28;20047;-78
2022/12/29 00:51:31;;;;;;;4.20;1.92;;;;;;;7.08;92.57;97661.91;4206419;28;20411;-77
2022/12/29 00:53:32;;;;;;;2.72;1.85;;;;;;;7.04;92.16;97664.63;4206625;28;20291;-77
2022/12/29 00:55:37;;;;;;;3.03;1.92;;;;;;;6.97;92.84;97647.22;4207377;28;20353;-78
2022/12/29 00:57:38;;;;;;;2.30;1.83;;;;;;;7.01;93.44;97654.34;4200937;28;20063;-77
2022/12/29 00:59:39;;;;;;;2.47;1.60;;;;;;;7.06;93.12;97660.69;4190801;28;20040;-77
2022/12/29 01:01:40;;;;;;;3.20;1.90;;;;;;;7.12;93.17;97643.50;4202625;28;20174;-78
2022/12/29 01:03:41;;;;;;;2.60;2.00;;;;;;;7.16;92.65;97638.00;4199851;28;20706;-77
2022/12/29 01:05:41;;;;;;;2.72;1.60;;;;;;;7.16;92.85;97638.81;4207363;28;20040;-77
2022/12/29 01:07:42;;;;;;;2.53;2.10;;;;;;;7.10;93.08;97645.81;4199877;28;20040;-77
2022/12/29 01:12:02;;;;;;;3.53;1.73;;;;;;;7.08;93.39;97644.59;4202125;28;20092;-76
2022/12/29 01:14:03;;;;;;;1.80;1.52;;;;;;;7.11;93.21;97649.34;4206860;28;20058;-77
2022/12/29 01:16:04;;;;;;;3.70;1.73;;;;;;;7.13;93.48;97641.53;4197112;28;20114;-77
2022/12/29 01:18:05;;;;;;;2.70;1.90;;;;;;;7.18;93.58;97641.97;4213330;28;20031;-77
2022/12/29 01:20:06;;;;;;;1.70;1.60;;;;;;;7.22;93.93;97651.06;4201384;28;20027;-78
2022/12/29 01:22:06;;;;;;;2.80;1.80;;;;;;;7.22;93.46;97640.06;4205606;28;20035;-78
2022/12/29 01:24:07;;;;;;;2.83;1.77;;;;;;;7.22;93.35;97633.75;4206401;28;20032;-78
2022/12/29 01:26:12;;;;;;;3.25;1.60;;;;;;;7.19;93.84;97638.03;4206391;28;20500;-78
2022/12/29 01:28:12;;;;;;;3.38;1.83;;;;;;;7.15;94.03;97644.69;4206718;28;20020;-78
2022/12/29 01:30:13;;;;;;;2.10;1.45;;;;;;;7.33;94.13;97649.22;4206046;28;20032;-77
2022/12/29 01:32:13;;;;;;;2.55;1.63;;;;;;;7.37;93.91;97646.53;4205741;28;20076;-78
2022/12/29 01:34:14;;;;;;;3.08;1.80;;;;;;;7.33;94.29;97629.94;4206884;28;20024;-78
2022/12/29 01:36:15;;;;;;;2.00;1.50;;;;;;;7.35;94.21;97646.06;4199796;28;20024;-78
2022/12/29 01:38:16;;;;;;;3.13;1.70;;;;;;;7.30;93.99;97635.44;4212746;28;20104;-78
2022/12/29 01:40:16;;;;;;;3.05;2.10;;;;;;;7.37;94.97;97627.25;4196506;28;20431;-78
2022/12/29 01:42:18;;;;;;;3.33;2.00;;;;;;;7.38;95.16;97639.84;4201131;28;20072;-78
2022/12/29 01:44:44;;;;;;;4.50;2.03;;;;;;;7.71;94.16;97650.00;4197703;28;20115;-77
2022/12/29 01:46:50;;;;;;;2.30;1.88;;;;;;;7.78;93.69;97654.78;4204862;28;20117;-78
2022/12/29 01:48:55;;;;;;;2.60;1.95;;;;;;;7.75;94.05;97642.56;4205508;28;20112;-77
2022/12/29 01:50:56;;;;;;;2.13;1.67;;;;;;;7.72;93.58;97648.03;4206017;28;20388;-78
2022/12/29 01:53:01;;;;;;;4.07;1.60;;;;;;;7.66;94.57;97641.28;4206076;28;20451;-78
2022/12/29 01:55:04;;;;;;;3.22;1.67;;;;;;;7.69;94.37;97633.03;4206421;28;20055;-78
2022/12/29 01:57:13;;;;;;;2.55;1.55;;;;;;;7.75;94.07;97648.06;4205978;28;20058;-78
2022/12/29 01:59:21;;;;;;;2.30;1.48;;;;;;;7.89;93.66;97630.88;4194916;28;20051;-78
2022/12/29 02:01:22;;;;;;;4.57;2.08;;;;;;;7.79;94.32;97632.38;4198808;28;20106;-77
2022/12/29 02:03:26;;;;;;;2.45;1.77;;;;;;;7.71;94.92;97629.94;4205214;28;20062;-77
2022/12/29 02:05:42;;;;;;;2.80;1.98;;;;;;;7.78;95.54;97635.50;4199957;28;20036;-78
2022/12/29 02:07:44;;;;;;;3.05;1.58;;;;;;;7.89;94.94;97633.63;4200849;28;20049;-78
2022/12/29 02:09:49;;;;;;;3.03;1.67;;;;;;;7.87;94.72;97631.25;4202750;28;20047;-78
2022/12/29 02:11:50;;;;;;;2.67;1.40;;;;;;;7.80;95.60;97614.69;4204719;28;20041;-77
2022/12/29 02:13:50;;;;;;;2.00;1.40;;;;;;;7.81;95.87;97613.50;4197129;28;20446;-77
2022/12/29 02:15:54;;;;;;;2.92;1.75;;;;;;;7.71;94.68;97619.72;4195035;28;20131;-78
2022/12/29 02:18:13;;;;;;;3.53;1.92;;;;;;;7.64;97.01;97618.84;4197178;28;20049;-77
2022/12/29 02:20:29;;;;;;;2.25;1.70;;;;;;;7.50;95.73;97606.53;4189489;28;20041;-77
2022/12/29 02:23:07;;;;;;;2.53;1.65;;;;;;;7.48;98.15;97602.59;4189304;28;20348;-78
2022/12/29 02:25:20;;;;;;;1.80;1.40;;;;;;;7.44;97.83;97599.78;4188090;28;20032;-77
2022/12/29 02:27:39;;;;;;;7.20;2.40;;;;;;;7.40;98.79;97614.69;4198441;28;20045;-78
2022/12/29 02:29:42;;;;;;;2.70;1.60;;;;;;;7.38;98.03;97601.31;4205729;28;20122;-78
2022/12/29 02:31:54;;;;;;;2.00;1.60;;;;;;;7.35;99.01;97617.78;4205561;28;20051;-78
2022/12/29 02:34:24;;;;;;;2.28;1.60;;;;;;;7.34;98.50;97608.72;4190510;28;20056;-78
2022/12/29 02:36:34;;;;;;;3.42;2.00;;;;;;;7.33;98.45;97601.66;4195923;28;20044;-78
2022/12/29 02:38:43;;;;;;;2.50;1.60;;;;;;;7.36;98.35;97583.56;4206466;28;20050;-77
2022/12/29 02:41:05;;;;;;;3.08;1.63;;;;;;;7.31;99.36;97585.53;4205356;28;20043;-77
2022/12/29 02:43:06;;;;;;;2.85;1.50;;;;;;;7.37;99.17;97579.69;4205843;28;20591;-78
2022/12/29 02:45:18;;;;;;;2.00;1.52;;;;;;;7.33;98.43;97576.88;4206799;28;20480;-78
2022/12/29 02:47:39;;;;;;;2.20;1.60;;;;;;;7.46;98.06;97580.16;4208639;28;20723;-77
2022/12/29 02:49:45;;;;;;;1.92;1.60;;;;;;;7.42;97.47;97590.31;4192772;28;20087;-78
2022/12/29 02:51:59;;;;;;;2.92;2.00;;;;;;;7.36;98.91;97584.38;4203612;28;20150;-78
2022/12/29 02:56:20;;;;;;;2.58;2.03;;;;;;;7.32;99.35;97591.81;4207918;28;20049;-77
2022/12/29 02:58:22;;;;;;;4.10;1.90;;;;;;;7.30;99.98;97591.41;4208730;28;20024;-77
2022/12/29 03:00:23;;;;;;;;;;;;;;;7.30;99.71;97594.94;4209551;28;20489;-78
2022/12/29 03:02:32;;;;;;;2.30;1.50;;;;;;;7.30;99.42;97589.44;4191040;28;20203;-77
2022/12/29 03:05:03;;;;;;;4.55;1.60;;;;;;;7.44;98.59;97565.97;4206258;28;20044;-77
2022/12/29 03:07:06;;;;;;;3.50;1.50;;;;;;;7.57;99.66;97570.03;4207945;28;20052;-77
2022/12/29 03:09:28;;;;;;;1.60;1.30;;;;;;;7.67;99.75;97561.06;4209035;28;20098;-77
2022/12/29 03:17:10;;;;;;;1.48;1.38;;;;;;;7.78;98.65;97542.69;4203208;28;20039;-77
2022/12/29 03:19:21;;;;;;;2.05;1.20;;;;;;;7.89;97.79;97535.28;4207150;28;20063;-77
2022/12/29 03:24:31;;;;;;;1.67;1.40;;;;;;;7.98;98.84;97556.19;4208288;28;20105;-77
2022/12/29 03:26:32;;;;;;;2.78;1.30;;;;;;;7.98;98.79;97556.19;4207882;28;20048;-77
2022/12/29 03:28:38;;;;;;;2.30;1.77;;;;;;;8.00;98.37;97562.88;4204227;28;20063;-78
2022/12/29 03:30:41;;;;;;;1.50;1.20;;;;;;;8.06;98.83;97569.63;4193116;28;20489;-77
2022/12/29 03:32:46;;;;;;;2.10;1.33;;;;;;;8.15;98.81;97569.28;4206399;28;20080;-77
2022/12/29 03:34:49;;;;;;;2.42;1.40;;;;;;;8.09;97.08;97593.63;4208650;28;20058;-78
2022/12/29 03:36:58;;;;;;;1.85;1.45;;;;;;;8.16;98.73;97579.13;4208382;28;20134;-77
2022/12/29 03:39:13;;;;;;;1.83;1.27;;;;;;;8.08;98.87;97585.75;4207959;28;20048;-78
2022/12/29 03:41:21;;;;;;;2.20;1.40;;;;;;;8.09;100.00;97576.31;4206448;28;20046;-77
2022/12/29 03:43:22;;;;;;;2.35;1.50;;;;;;;8.08;99.42;97550.75;4207768;28;20052;-77
2022/12/29 03:45:23;;;;;;;1.85;1.30;;;;;;;8.04;100.00;97540.88;4206733;28;20062;-77
2022/12/29 03:47:24;;;;;;;2.40;1.42;;;;;;;7.94;100.00;97569.13;4208228;28;20051;-78
2022/12/29 03:49:24;;;;;;;3.13;1.40;;;;;;;7.96;100.00;97584.13;4206122;28;20373;-77
2022/12/29 03:51:25;;;;;;;1.75;1.45;;;;;;;8.07;100.00;97575.91;4207036;28;20059;-77
2022/12/29 03:53:25;;;;;;;1.63;1.40;;;;;;;8.05;100.00;97573.56;4199289;28;20131;-77
2022/12/29 03:55:25;;;;;;;2.03;1.50;;;;;;;8.05;100.00;97570.00;4191358;28;20723;-77
2022/12/29 03:57:26;;;;;;;1.70;1.30;;;;;;;8.12;100.00;97564.56;4189724;28;20137;-77
2022/12/29 03:59:26;;;;;;;1.63;1.23;;;;;;;8.09;100.00;97557.81;4190826;28;20101;-77
2022/12/29 04:01:26;;;;;;;2.42;1.30;;;;;;;7.99;100.00;97531.00;4195686;28;20071;-77
2022/12/29 04:03:27;;;;;;;1.83;1.23;;;;;;;7.96;100.00;97562.09;4196646;28;20371;-77
2022/12/29 04:05:27;;;;;;;2.03;1.20;;;;;;;7.99;100.00;97532.97;4191475;28;20465;-77
2022/12/29 04:07:28;;;;;;;2.10;1.40;;;;;;;7.92;100.00;97538.44;4191233;28;20713;-78
2022/12/29 04:09:29;;;;;;;1.42;1.13;;;;;;;7.88;100.00;97536.44;4205498;28;20162;-78
2022/12/29 04:11:30;;;;;;;2.05;1.20;;;;;;;7.90;100.00;97519.53;4199709;28;20048;-77
2022/12/29 04:13:30;;;;;;;4.10;1.30;;;;;;;7.87;100.00;97531.34;4192044;28;20098;-77
2022/12/29 04:15:30;;;;;;;2.15;1.67;;;;;;;7.75;100.00;97521.41;4203858;28;20127;-78
2022/12/29 04:17:31;;;;;;;2.35;1.50;;;;;;;7.77;100.00;97518.25;4208004;28;20040;-77
2022/12/29 04:19:31;;;;;;;1.90;1.40;;;;;;;7.79;100.00;97515.94;4206769;28;20040;-77
2022/12/29 04:21:31;;;;;;;1.88;1.30;;;;;;;7.75;100.00;97510.38;4198566;28;20033;-78
2022/12/29 04:23:37;;;;;;;2.30;1.40;;;;;;;7.73;100.00;97515.50;4197257;28;20102;-78
2022/12/29 04:25:37;;;;;;;1.40;1.30;;;;;;;7.72;100.00;97513.13;4207206;28;20125;-77
2022/12/29 04:27:38;;;;;;;1.23;1.13;;;;;;;7.73;100.00;97509.97;4206469;28;20135;-77
2022/12/29 04:29:38;;;;;;;1.88;1.30;;;;;;;7.72;100.00;97508.41;4191566;28;20059;-77
2022/12/29 04:31:38;;;;;;;3.58;1.40;;;;;;;7.74;100.00;97505.25;4197603;28;20609;-77
2022/12/29 04:33:39;;;;;;;1.77;1.20;;;;;;;7.70;100.00;97510.75;4206146;28;20458;-78
2022/12/29 04:35:39;;;;;;;2.65;1.25;;;;;;;7.73;100.00;97515.50;4198824;28;20045;-77
2022/12/29 04:37:39;;;;;;;1.48;1.15;;;;;;;7.75;100.00;97515.88;4190844;28;20066;-77
2022/12/29 04:39:40;;;;;;;1.38;1.05;;;;;;;7.81;100.00;97519.09;4204396;28;20044;-78
2022/12/29 04:41:40;;;;;;;2.30;1.17;;;;;;;7.85;100.00;97509.66;4205261;28;20036;-78
2022/12/29 04:43:40;;;;;;;1.90;1.50;;;;;;;7.93;100.00;97518.75;4205577;28;20362;-78
2022/12/29 04:45:45;;;;;;;1.58;1.30;;;;;;;7.86;100.00;97522.28;4196749;28;20071;-77
2022/12/29 04:47:45;;;;;;;3.22;1.27;;;;;;;7.78;100.00;97526.16;4190821;28;20511;-77
2022/12/29 04:49:45;;;;;;;2.58;1.40;;;;;;;7.89;100.00;97526.22;4190391;28;20045;-77
2022/12/29 04:51:46;;;;;;;2.65;1.30;;;;;;;7.88;100.00;97524.66;4199262;28;20657;-78
2022/12/29 04:53:46;;;;;;;1.83;1.40;;;;;;;7.89;100.00;97548.25;4205970;28;20527;-77
2022/12/29 04:55:51;;;;;;;2.00;1.30;;;;;;;7.89;100.00;97542.75;4206235;28;20059;-78
2022/12/29 04:57:52;;;;;;;1.27;1.17;;;;;;;7.98;100.00;97537.69;4207157;28;20487;-78
2022/12/29 04:59:52;;;;;;;1.25;1.10;;;;;;;8.07;100.00;97535.38;4207431;28;20040;-78
2022/12/29 05:01:53;;;;;;;1.40;1.30;;;;;;;8.20;100.00;97529.56;4204849;28;20073;-78
2022/12/29 05:03:53;;;;;;;2.25;1.35;;;;;;;8.20;100.00;97521.31;4199957;28;20122;-78
2022/12/29 05:05:55;;;;;;;2.47;1.40;;;;;;;8.25;100.00;97526.44;4207298;28;20044;-77
2022/12/29 05:07:55;;;;;;;1.73;1.20;;;;;;;8.23;100.00;97524.06;4211668;28;20158;-78
2022/12/29 05:09:56;;;;;;;2.28;1.67;;;;;;;8.17;100.00;97509.06;4197800;28;20090;-77
2022/12/29 05:11:56;;;;;;;2.53;1.30;;;;;;;8.17;100.00;97517.34;4198298;28;20040;-77
2022/12/29 05:13:56;;;;;;;1.77;1.40;;;;;;;8.07;99.90;97516.09;4209477;28;20040;-78
2022/12/29 05:15:57;;;;;;;1.88;1.50;;;;;;;8.13;100.00;97514.56;4190986;28;20068;-78
2022/12/29 05:17:57;;;;;;;1.30;1.20;;;;;;;8.11;100.00;97510.63;4190320;28;20071;-78
2022/12/29 05:19:58;;;;;;;2.13;1.48;;;;;;;8.20;100.00;97511.06;4189964;28;20052;-77
2022/12/29 05:21:58;;;;;;;1.80;1.30;;;;;;;8.18;100.00;97516.16;4194049;28;20135;-78
2022/12/29 05:23:58;;;;;;;2.00;1.27;;;;;;;8.23;100.00;97528.78;4206439;28;20126;-78
2022/12/29 05:25:59;;;;;;;1.60;1.20;;;;;;;8.21;100.00;97531.94;4201796;28;20107;-78
2022/12/29 05:27:59;;;;;;;1.85;1.33;;;;;;;8.16;100.00;97527.56;4211513;28;20046;-78
2022/12/29 05:29:59;;;;;;;2.38;1.70;;;;;;;8.26;100.00;97534.31;4195992;28;20121;-78
2022/12/29 05:32:00;;;;;;;2.95;1.30;;;;;;;8.30;100.00;97540.66;4197730;28;20043;-77
2022/12/29 05:34:00;;;;;;;2.67;1.48;;;;;;;8.37;100.00;97539.94;4204974;28;20047;-78
2022/12/29 05:36:05;;;;;;;3.70;1.55;;;;;;;8.40;100.00;97528.13;4200373;28;20387;-76
2022/12/29 05:38:05;;;;;;;2.33;1.50;;;;;;;8.36;98.80;97516.31;4189934;28;20032;-77
2022/12/29 05:40:07;;;;;;;3.25;1.60;;;;;;;8.28;100.00;97520.94;4190154;28;20536;-78
2022/12/29 05:42:07;;;;;;;2.10;1.25;;;;;;;8.34;100.00;97522.13;4189465;28;20032;-77
2022/12/29 05:44:07;;;;;;;2.08;1.40;;;;;;;8.35;100.00;97534.78;4202271;28;20115;-77
2022/12/29 05:46:08;;;;;;;3.20;1.42;;;;;;;8.46;100.00;97537.59;4198836;28;20024;-78
2022/12/29 05:48:08;;;;;;;4.07;1.35;;;;;;;8.38;99.56;97542.28;4209745;28;20076;-77
2022/12/29 05:50:08;;;;;;;1.63;1.20;;;;;;;8.46;100.00;97520.28;4197584;28;20024;-77
2022/12/29 05:52:09;;;;;;;2.40;1.50;;;;;;;8.43;100.00;97550.19;4199077;28;20029;-78
2022/12/29 05:54:09;;;;;;;2.97;1.50;;;;;;;8.55;100.00;97534.50;4201270;28;20119;-78
2022/12/29 05:56:09;;;;;;;2.25;1.35;;;;;;;8.56;100.00;97503.78;4190003;28;20465;-78
2022/12/29 05:58:10;;;;;;;2.38;1.73;;;;;;;8.48;99.68;97496.66;4189663;28;20346;-78
2022/12/29 06:00:11;;;;;;;2.35;1.40;;;;;;;8.42;100.00;97496.22;4190227;28;20033;-78
2022/12/29 06:02:11;;;;;;;2.03;1.30;;;;;;;8.34;100.00;97482.78;4104704;28;20441;-77
2022/12/29 06:04:12;;;;;;;3.38;1.40;;;;;;;8.30;100.00;97493.00;4199463;28;20054;-78
2022/12/29 06:06:12;;;;;;;2.50;1.33;;;;;;;8.37;100.00;97479.28;4212009;28;20036;-77
2022/12/29 06:08:12;;;;;;;2.28;1.30;;;;;;;8.30;100.00;97487.50;4190574;28;20033;-77
2022/12/29 06:10:13;;;;;;;2.83;1.25;;;;;;;8.26;100.00;97497.69;4189795;28;20403;-78
2022/12/29 06:12:13;;;;;;;1.38;1.10;;;;;;;8.35;100.00;97504.47;4203949;28;20475;-78
2022/12/29 06:14:14;;;;;;;1.88;1.10;;;;;;;8.31;98.94;97489.84;4205781;28;20035;-78
2022/12/29 06:16:14;;;;;;;1.33;1.23;;;;;;;8.39;99.23;97499.75;4200807;28;20031;-77
2022/12/29 06:18:14;;;;;;;2.35;1.50;;;;;;;8.52;98.65;97491.13;4206280;28;20028;-78
2022/12/29 06:20:15;;;;;;;2.03;1.40;;;;;;;8.52;98.37;97499.41;4208317;28;20119;-78
2022/12/29 06:22:15;;;;;;;1.83;1.38;;;;;;;8.52;97.91;97488.38;4202525;28;20039;-78
2022/12/29 06:24:15;;;;;;;4.75;1.95;;;;;;;8.47;98.17;97508.84;4208781;28;20020;-78
2022/12/29 06:26:16;;;;;;;1.38;1.20;;;;;;;8.56;98.03;97508.50;4209214;28;20032;-78
2022/12/29 06:28:17;;;;;;;1.60;1.27;;;;;;;8.51;97.99;97508.84;4209563;28;20032;-77
2022/12/29 06:30:17;;;;;;;2.92;1.35;;;;;;;8.53;98.26;97510.06;4204092;28;20230;-77
2022/12/29 06:32:17;;;;;;;4.45;1.25;;;;;;;8.54;98.57;97513.63;4208811;28;20107;-78
2022/12/29 06:34:18;;;;;;;2.22;1.50;;;;;;;8.60;98.16;97520.31;4199816;28;20031;-78
2022/12/29 06:36:18;;;;;;;1.67;1.27;;;;;;;8.63;98.62;97516.81;4207540;28;20552;-78
2022/12/29 06:38:18;;;;;;;1.88;1.20;;;;;;;8.60;98.67;97532.13;4209307;28;20036;-78
2022/12/29 06:40:19;;;;;;;2.58;1.38;;;;;;;8.66;98.67;97530.59;4209025;28;20028;-78
2022/12/29 06:42:20;;;;;;;3.15;1.38;;;;;;;8.75;98.03;97535.75;4208942;28;20093;-78
2022/12/29 06:44:21;;;;;;;3.10;1.13;;;;;;;8.76;98.61;97542.03;4208496;28;20438;-78
2022/12/29 06:46:21;;;;;;;2.67;1.20;;;;;;;8.68;99.15;97547.53;4207808;28;20060;-78
2022/12/29 06:48:22;;;;;;;2.65;1.38;;;;;;;8.74;98.61;97531.41;4209180;28;20464;-78
2022/12/29 06:50:22;;;;;;;1.42;1.17;;;;;;;8.76;97.77;97534.56;4208575;28;20464;-78
2022/12/29 06:52:23;;;;;;;2.58;1.25;;;;;;;8.79;98.06;97533.00;4209781;28;20544;-78
2022/12/29 06:54:24;;;;;;;1.77;1.20;;;;;;;8.77;98.28;97518.78;4201925;28;20064;-78
2022/12/29 06:56:24;;;;;;;1.40;1.05;;;;;;;8.70;98.42;97517.63;4209025;28;20082;-78
2022/12/29 06:58:24;;;;;;;3.70;1.95;;;;;;;8.72;98.04;97515.25;4209093;28;20044;-78
2022/12/29 07:00:25;;;;;;;3.03;1.42;;;;;;;8.80;98.15;97515.28;4209385;28;20040;-78
2022/12/29 07:02:25;;;;;;;1.63;1.20;;;;;;;8.85;97.95;97518.44;4208615;28;20040;-78
2022/12/29 07:04:26;;;;;;;5.03;2.78;;;;;;;8.87;97.23;97518.06;4208354;28;20445;-78
2022/12/29 07:06:26;;;;;;;2.58;1.60;;;;;;;8.86;97.60;97538.56;4208709;28;20035;-78
2022/12/29 07:08:27;;;;;;;2.03;1.70;;;;;;;8.90;97.50;97526.34;4204770;28;20036;-78
2022/12/29 07:10:27;;;;;;;2.30;1.17;;;;;;;8.89;97.48;97521.22;4213970;27;20526;-78
2022/12/29 07:12:28;;;;;;;15.80;6.82;;;;;;;8.83;98.02;97529.06;4199475;28;20059;-78
2022/12/29 07:14:28;;;;;;;9.18;4.60;;;;;;;8.78;97.78;97539.72;4204233;28;20052;-78
2022/12/29 07:16:29;;;;;;;11.75;5.40;;;;;;;8.71;98.32;97544.00;4192232;28;20480;-78
2022/12/29 07:18:30;;;;;;;10.48;5.40;;;;;;;8.63;98.34;97531.38;4207340;28;20472;-78
2022/12/29 07:20:31;;;;;;;10.45;5.38;;;;;;;8.58;98.68;97545.53;4208924;28;20048;-78
2022/12/29 07:22:31;;;;;;;12.75;6.78;;;;;;;8.54;98.88;97538.44;4191504;28;20115;-78
2022/12/29 07:24:32;;;;;;;3.95;2.20;;;;;;;8.64;99.12;97534.91;4191948;28;20477;-78
2022/12/29 07:26:32;;;;;;;2.28;1.45;;;;;;;8.62;99.22;97537.28;4192194;28;20032;-78
2022/12/29 07:28:34;;;;;;;3.50;2.00;;;;;;;8.60;99.10;97543.16;4190726;28;20155;-78
2022/12/29 07:30:37;;;;;;;4.07;2.53;;;;;;;8.64;98.14;97551.47;4190985;28;20040;-78
2022/12/29 07:32:37;;;;;;;;;;;;;;;8.71;98.87;97544.00;4191929;28;20309;-78
2022/12/29 07:34:39;;;;;;;2.53;1.42;;;;;;;8.66;99.58;97549.09;4191543;28;19948;-78
2022/12/29 07:36:39;;;;;;;1.70;1.33;;;;;;;8.66;99.45;97551.84;4191739;28;20032;-78
2022/12/29 07:38:41;;;;;;;2.72;1.30;;;;;;;8.60;99.35;97545.13;4191801;28;20041;-78
2022/12/29 07:40:41;;;;;;;2.13;1.20;;;;;;;8.63;100.00;97545.16;4191865;28;20056;-78
2022/12/29 07:42:42;;;;;;;1.83;1.00;;;;;;;8.73;100.00;97546.38;4191131;28;20063;-78
2022/12/29 07:44:42;;;;;;;1.13;1.02;;;;;;;8.81;98.72;97547.19;4190289;28;20477;-78
2022/12/29 07:46:42;;;;;;;2.08;1.00;;;;;;;8.88;98.94;97566.53;4191459;28;20469;-78
2022/12/29 07:48:43;;;;;;;1.40;1.20;;;;;;;8.91;98.38;97535.41;4196940;28;20139;-78
2022/12/29 07:50:43;;;;;;;1.15;1.05;;;;;;;8.96;98.50;97554.34;4190136;28;20060;-78
2022/12/29 07:52:44;;;;;;;1.30;1.13;;;;;;;8.93;98.81;97555.88;4189357;28;20036;-78
2022/12/29 07:54:45;;;;;;;2.20;1.10;;;;;;;8.97;97.93;97553.16;4203173;28;20028;-78
2022/12/29 07:56:45;;;;;;;0.98;0.90;;;;;;;8.93;98.26;97555.88;4206728;28;20062;-78
2022/12/29 07:58:46;;;;;;;1.38;1.15;;;;;;;8.88;99.15;97545.25;4207978;28;20078;-78
2022/12/29 08:00:46;;;;;;;0.85;0.82;;;;;;;8.86;98.90;97555.91;4208049;28;20383;-78
2022/12/29 08:02:46;;;;;;;1.23;0.90;;;;;;;8.98;98.32;97546.47;4200764;28;20865;-78
2022/12/29 08:04:47;;;;;;;2.20;1.20;;;;;;;8.92;98.00;97551.56;4207820;28;20473;-78
2022/12/29 08:06:47;;;;;;;1.50;1.05;;;;;;;8.92;98.11;97553.53;4207721;28;20086;-78
2022/12/29 08:08:47;;;;;;;1.83;1.30;;;;;;;8.86;98.83;97553.13;4208089;28;20043;-78
2022/12/29 08:10:48;;;;;;;1.42;1.08;;;;;;;8.80;98.46;97543.66;4207932;28;20111;-78
2022/12/29 08:12:48;;;;;;;2.97;1.40;;;;;;;8.82;99.12;97548.78;4206881;28;20036;-78
2022/12/29 08:14:49;;;;;;;1.65;1.17;;;;;;;8.91;98.56;97549.97;4205726;28;20044;-78
2022/12/29 08:16:49;;;;;;;2.45;1.30;;;;;;;8.94;98.12;97548.44;4207059;28;20032;-78
2022/12/29 08:18:49;;;;;;;1.65;1.35;;;;;;;8.87;98.13;97559.44;4207378;28;20048;-78
2022/12/29 08:20:50;;;;;;;2.40;1.85;;;;;;;8.92;98.49;97551.56;4207212;28;20079;-78
2022/12/29 08:22:51;;;;;;;1.55;1.30;;;;;;;9.00;98.52;97557.88;4207474;28;20036;-78
2022/12/29 08:24:51;;;;;;;2.25;1.20;;;;;;;8.96;98.15;97557.88;4206618;28;20091;-78
2022/12/29 08:26:52;;;;;;;1.48;1.15;;;;;;;8.94;98.37;97542.91;4207619;28;20067;-78
2022/12/29 08:28:54;;;;;;;1.73;1.20;;;;;;;8.96;98.72;97546.06;4207918;28;20793;-78
2022/12/29 08:30:58;;;;;;;1.20;1.02;;;;;;;8.93;98.54;97557.88;4206382;28;20051;-78
2022/12/29 08:32:58;;;;;;;2.45;1.23;;;;;;;8.89;99.02;97541.31;4206456;28;20468;-78
2022/12/29 08:34:58;;;;;;;1.88;1.35;;;;;;;8.89;98.38;97560.63;4207621;28;20119;-78
2022/12/29 08:36:59;;;;;;;1.65;1.20;;;;;;;8.89;99.00;97552.34;4207775;28;20067;-78
2022/12/29 08:38:59;;;;;;;3.30;1.50;;;;;;;8.87;98.94;97554.72;4207934;28;20074;-78
2022/12/29 08:41:01;;;;;;;2.20;1.70;;;;;;;8.90;98.53;97551.16;4207294;28;20081;-78
2022/12/29 08:43:01;;;;;;;3.55;2.20;;;;;;;8.94;98.81;97556.72;4206869;28;20429;-78
2022/12/29 08:45:02;;;;;;;2.38;1.77;;;;;;;8.94;98.67;97556.72;4207710;28;20087;-78
2022/12/29 08:47:02;;;;;;;2.00;1.40;;;;;;;9.10;97.57;97551.63;4207185;28;20097;-78
2022/12/29 08:49:03;;;;;;;2.65;1.40;;;;;;;9.09;97.81;97552.78;4207343;28;20274;-78
2022/12/29 08:51:03;;;;;;;1.30;1.20;;;;;;;9.09;97.84;97549.25;4205835;28;20114;-78
2022/12/29 08:53:03;;;;;;;1.88;1.45;;;;;;;9.07;97.71;97549.63;4208136;28;20560;-78
2022/12/29 08:55:04;;;;;;;4.60;1.77;;;;;;;9.08;98.54;97553.19;4204448;28;20052;-78
2022/12/29 08:57:05;;;;;;;4.45;1.40;;;;;;;9.12;97.85;97554.00;4213808;28;20043;-78
2022/12/29 08:59:05;;;;;;;2.83;1.52;;;;;;;9.09;97.49;97555.53;4206688;28;20158;-78
2022/12/29 09:01:06;;;;;;;1.67;1.20;;;;;;;9.12;97.77;97557.53;4206487;28;20040;-78
2022/12/29 09:03:06;;;;;;;3.60;1.70;;;;;;;9.13;96.46;97556.34;4203170;28;20527;-78
2022/12/29 09:05:07;;;;;;;3.00;1.40;;;;;;;9.09;96.94;97560.28;4194451;28;20496;-78
2022/12/29 09:07:07;;;;;;;2.67;1.52;;;;;;;9.14;96.99;97555.16;4207580;28;20044;-78
2022/12/29 09:09:08;;;;;;;3.05;1.60;;;;;;;9.20;96.64;97569.38;4203195;28;20043;-78
2022/12/29 09:11:11;;;;;;;2.38;1.70;;;;;;;9.28;96.45;97560.72;4201880;28;20050;-78
2022/12/29 09:13:12;;;;;;;1.67;1.17;;;;;;;9.28;95.51;97557.97;4205280;28;20481;-78
2022/12/29 09:15:13;;;;;;;4.15;1.70;;;;;;;9.33;95.64;97567.81;4198346;28;20078;-78
2022/12/29 09:19:32;;;;;;;3.17;2.45;;;;;;;9.28;96.93;97569.00;4199653;28;20051;-79
2022/12/29 09:21:33;;;;;;;4.53;2.80;;;;;;;9.32;96.42;97562.69;4203597;28;20516;-78
2022/12/29 09:23:34;;;;;;;3.25;1.75;;;;;;;9.38;95.82;97556.41;4204991;28;20075;-78
2022/12/29 09:25:34;;;;;;;2.10;1.60;;;;;;;9.45;95.63;97567.47;4203823;28;20088;-78
2022/12/29 09:27:36;;;;;;;4.63;3.03;;;;;;;9.39;95.67;97563.50;4211066;28;20139;-78
2022/12/29 09:29:36;;;;;;;3.47;2.17;;;;;;;9.43;95.03;97560.72;4201710;28;20040;-78
2022/12/29 09:31:36;;;;;;;2.75;2.35;;;;;;;9.42;95.59;97568.22;4211348;28;20055;-78
2022/12/29 09:33:37;;;;;;;3.53;2.80;;;;;;;9.46;95.96;97563.50;4197335;28;20044;-78
2022/12/29 09:35:42;;;;;;;4.55;3.35;;;;;;;9.46;95.34;97562.72;4204314;28;20108;-78
2022/12/29 09:37:43;;;;;;;3.75;2.75;;;;;;;9.50;94.64;97561.53;4188703;28;20532;-79
2022/12/29 09:39:43;;;;;;;3.15;1.92;;;;;;;9.52;94.90;97555.63;4203921;28;20468;-78
2022/12/29 09:42:08;;;;;;;2.80;1.88;;;;;;;9.55;94.55;97565.88;4206716;28;20044;-79
2022/12/29 09:44:37;;;;;;;2.67;2.22;;;;;;;9.47;94.40;97547.72;4205814;28;20102;-78
2022/12/29 09:46:41;;;;;;;1.75;1.50;;;;;;;9.51;94.75;97562.31;4206213;28;20043;-78
2022/12/29 09:48:47;;;;;;;3.60;1.70;;;;;;;9.47;94.42;97556.81;4206864;28;20085;-79
2022/12/29 09:50:52;;;;;;;5.95;2.20;;;;;;;9.60;94.22;97561.94;4206906;28;20269;-79
2022/12/29 09:53:01;;;;;;;2.40;1.80;;;;;;;9.69;93.58;97563.16;4206208;28;20059;-78
2022/12/29 09:55:34;;;;;;;3.60;1.90;;;;;;;9.75;93.24;97544.19;4208033;28;20048;-78
2022/12/29 09:57:41;;;;;;;7.07;2.75;;;;;;;9.75;93.26;97552.47;4201743;28;20511;-79
2022/12/29 09:59:44;;;;;;;4.45;2.22;;;;;;;9.80;93.26;97554.84;4209673;28;20052;-78
2022/12/29 10:02:11;;;;;;;3.45;2.50;;;;;;;9.73;93.56;97560.38;4210161;28;20036;-79
2022/12/29 10:04:12;;;;;;;3.47;2.38;;;;;;;9.85;93.30;97551.69;4209054;28;20067;-79
2022/12/29 10:06:24;;;;;;;3.15;1.67;;;;;;;9.73;93.34;97547.34;4209672;28;20027;-78
2022/12/29 10:08:37;;;;;;;2.63;1.80;;;;;;;9.72;93.25;97562.34;4210295;28;20399;-79
2022/12/29 10:10:47;;;;;;;2.60;1.60;;;;;;;9.77;93.24;97556.44;4203842;28;20052;-79
2022/12/29 10:12:57;;;;;;;1.50;1.23;;;;;;;9.80;93.09;97558.41;4201251;28;20040;-78
2022/12/29 10:15:16;;;;;;;3.88;1.75;;;;;;;9.86;93.18;97550.50;4205072;28;20107;-79
2022/12/29 10:17:29;;;;;;;2.83;1.48;;;;;;;9.85;91.87;97552.50;4203305;28;20056;-79
2022/12/29 10:19:31;;;;;;;3.72;1.50;;;;;;;9.87;92.20;97557.63;4208399;28;20039;-79
2022/12/29 10:22:09;;;;;;;2.95;1.40;;;;;;;9.93;91.76;97558.81;4202617;28;20148;-79
2022/12/29 10:24:12;;;;;;;2.85;1.98;;;;;;;9.99;91.98;97561.94;4204984;28;20055;-79
2022/12/29 10:26:18;;;;;;;2.85;1.40;;;;;;;9.99;92.98;97556.41;4208013;28;20380;-79